sensor_id;sensor_type;location;lat;lon;timestamp;P1;durP1;ratioP1;P2;durP2;ratioP2
20298;SDS011;10308;42.688;23.256;2023-10-31T00:00:49;9.57;;;7.90;;
20298;SDS011;10308;42.688;23.256;2023-10-31T00:03:16;9.20;;;7.40;;
20298;SDS011;10308;42.688;23.256;2023-10-31T00:05:49;9.57;;;8.55;;
20298;SDS011;10308;42.688;23.256;2023-10-31T00:08:20;10.05;;;8.15;;
20298;SDS011;10308;42.688;23.256;2023-10-31T00:10:47;13.25;;;11.98;;
20298;SDS011;10308;42.688;23.256;2023-10-31T00:13:16;12.60;;;11.40;;
20298;SDS011;10308;42.688;23.256;2023-10-31T00:15:45;16.77;;;11.63;;
20298;SDS011;10308;42.688;23.256;2023-10-31T00:18:15;10.57;;;9.48;;
20298;SDS011;10308;42.688;23.256;2023-10-31T00:20:43;10.25;;;8.98;;
20298;SDS011;10308;42.688;23.256;2023-10-31T00:23:11;8.60;;;7.80;;
20298;SDS011;10308;42.688;23.256;2023-10-31T00:25:42;8.50;;;7.50;;
20298;SDS011;10308;42.688;23.256;2023-10-31T00:28:13;15.40;;;13.90;;
20298;SDS011;10308;42.688;23.256;2023-10-31T00:30:41;22.38;;;20.17;;
20298;SDS011;10308;42.688;23.256;2023-10-31T00:33:08;30.42;;;27.48;;
20298;SDS011;10308;42.688;23.256;2023-10-31T00:35:40;33.10;;;29.80;;
20298;SDS011;10308;42.688;23.256;2023-10-31T00:38:07;29.05;;;26.10;;
20298;SDS011;10308;42.688;23.256;2023-10-31T00:40:37;17.88;;;16.17;;
20298;SDS011;10308;42.688;23.256;2023-10-31T00:43:07;19.05;;;16.98;;
20298;SDS011;10308;42.688;23.256;2023-10-31T00:45:35;22.35;;;19.83;;
20298;SDS011;10308;42.688;23.256;2023-10-31T00:48:02;21.30;;;19.13;;
20298;SDS011;10308;42.688;23.256;2023-10-31T00:50:32;16.52;;;14.95;;
20298;SDS011;10308;42.688;23.256;2023-10-31T00:53:01;14.70;;;13.20;;
20298;SDS011;10308;42.688;23.256;2023-10-31T00:55:34;16.52;;;14.38;;
20298;SDS011;10308;42.688;23.256;2023-10-31T00:58:07;13.45;;;12.13;;
20298;SDS011;10308;42.688;23.256;2023-10-31T01:00:35;10.13;;;9.13;;
20298;SDS011;10308;42.688;23.256;2023-10-31T01:03:05;14.15;;;12.80;;
20298;SDS011;10308;42.688;23.256;2023-10-31T01:05:41;13.23;;;11.82;;
20298;SDS011;10308;42.688;23.256;2023-10-31T01:08:09;16.98;;;15.23;;
20298;SDS011;10308;42.688;23.256;2023-10-31T01:10:37;16.83;;;15.13;;
20298;SDS011;10308;42.688;23.256;2023-10-31T01:13:04;16.80;;;15.25;;
20298;SDS011;10308;42.688;23.256;2023-10-31T01:15:31;16.73;;;14.07;;
20298;SDS011;10308;42.688;23.256;2023-10-31T01:17:58;14.05;;;12.75;;
20298;SDS011;10308;42.688;23.256;2023-10-31T01:20:27;17.10;;;13.65;;
20298;SDS011;10308;42.688;23.256;2023-10-31T01:22:55;14.75;;;13.25;;
20298;SDS011;10308;42.688;23.256;2023-10-31T01:25:23;12.85;;;11.65;;
20298;SDS011;10308;42.688;23.256;2023-10-31T01:27:51;11.85;;;10.68;;
20298;SDS011;10308;42.688;23.256;2023-10-31T01:30:20;11.40;;;10.35;;
20298;SDS011;10308;42.688;23.256;2023-10-31T01:32:47;12.20;;;10.85;;
20298;SDS011;10308;42.688;23.256;2023-10-31T01:35:14;10.48;;;9.40;;
20298;SDS011;10308;42.688;23.256;2023-10-31T01:37:42;10.18;;;9.18;;
20298;SDS011;10308;42.688;23.256;2023-10-31T01:40:12;8.60;;;7.28;;
20298;SDS011;10308;42.688;23.256;2023-10-31T01:42:43;8.07;;;7.38;;
20298;SDS011;10308;42.688;23.256;2023-10-31T01:45:14;8.65;;;7.50;;
20298;SDS011;10308;42.688;23.256;2023-10-31T01:47:42;8.95;;;7.55;;
20298;SDS011;10308;42.688;23.256;2023-10-31T01:50:11;7.70;;;6.88;;
20298;SDS011;10308;42.688;23.256;2023-10-31T01:52:41;9.32;;;6.78;;
20298;SDS011;10308;42.688;23.256;2023-10-31T01:55:10;7.22;;;6.53;;
20298;SDS011;10308;42.688;23.256;2023-10-31T01:57:40;7.82;;;6.90;;
20298;SDS011;10308;42.688;23.256;2023-10-31T02:00:11;9.13;;;6.53;;
20298;SDS011;10308;42.688;23.256;2023-10-31T02:02:43;7.68;;;6.35;;
20298;SDS011;10308;42.688;23.256;2023-10-31T02:05:10;7.38;;;6.43;;
20298;SDS011;10308;42.688;23.256;2023-10-31T02:07:39;7.82;;;6.13;;
20298;SDS011;10308;42.688;23.256;2023-10-31T02:10:06;6.95;;;6.07;;
20298;SDS011;10308;42.688;23.256;2023-10-31T02:12:33;9.40;;;6.13;;
20298;SDS011;10308;42.688;23.256;2023-10-31T02:15:02;6.35;;;5.70;;
20298;SDS011;10308;42.688;23.256;2023-10-31T02:17:32;6.70;;;5.20;;
20298;SDS011;10308;42.688;23.256;2023-10-31T02:19:59;5.53;;;4.70;;
20298;SDS011;10308;42.688;23.256;2023-10-31T02:22:30;6.50;;;5.68;;
20298;SDS011;10308;42.688;23.256;2023-10-31T02:24:58;5.82;;;5.10;;
20298;SDS011;10308;42.688;23.256;2023-10-31T02:27:25;7.40;;;5.45;;
20298;SDS011;10308;42.688;23.256;2023-10-31T02:29:54;7.82;;;5.53;;
20298;SDS011;10308;42.688;23.256;2023-10-31T02:32:24;6.75;;;5.82;;
20298;SDS011;10308;42.688;23.256;2023-10-31T02:34:50;6.53;;;5.93;;
20298;SDS011;10308;42.688;23.256;2023-10-31T02:37:19;7.80;;;5.90;;
20298;SDS011;10308;42.688;23.256;2023-10-31T02:39:52;7.72;;;5.68;;
20298;SDS011;10308;42.688;23.256;2023-10-31T02:42:23;7.35;;;6.65;;
20298;SDS011;10308;42.688;23.256;2023-10-31T02:44:53;6.65;;;6.05;;
20298;SDS011;10308;42.688;23.256;2023-10-31T02:47:22;8.30;;;6.68;;
20298;SDS011;10308;42.688;23.256;2023-10-31T02:49:49;8.75;;;7.88;;
20298;SDS011;10308;42.688;23.256;2023-10-31T02:52:16;12.52;;;11.27;;
20298;SDS011;10308;42.688;23.256;2023-10-31T02:54:46;10.82;;;9.73;;
20298;SDS011;10308;42.688;23.256;2023-10-31T02:57:16;23.08;;;20.98;;
20298;SDS011;10308;42.688;23.256;2023-10-31T02:59:43;21.27;;;19.25;;
20298;SDS011;10308;42.688;23.256;2023-10-31T03:02:11;18.58;;;15.63;;
20298;SDS011;10308;42.688;23.256;2023-10-31T03:04:38;35.40;;;31.83;;
20298;SDS011;10308;42.688;23.256;2023-10-31T03:07:05;23.60;;;21.33;;
20298;SDS011;10308;42.688;23.256;2023-10-31T03:09:35;38.25;;;34.35;;
20298;SDS011;10308;42.688;23.256;2023-10-31T03:12:05;11.57;;;10.27;;
20298;SDS011;10308;42.688;23.256;2023-10-31T03:14:34;16.85;;;14.60;;
20298;SDS011;10308;42.688;23.256;2023-10-31T03:17:04;8.45;;;7.53;;
20298;SDS011;10308;42.688;23.256;2023-10-31T03:19:31;23.77;;;21.45;;
20298;SDS011;10308;42.688;23.256;2023-10-31T03:22:00;19.15;;;17.15;;
20298;SDS011;10308;42.688;23.256;2023-10-31T03:24:27;13.45;;;11.68;;
20298;SDS011;10308;42.688;23.256;2023-10-31T03:26:54;14.50;;;9.68;;
20298;SDS011;10308;42.688;23.256;2023-10-31T03:29:21;11.68;;;9.05;;
20298;SDS011;10308;42.688;23.256;2023-10-31T03:31:51;8.75;;;7.45;;
20298;SDS011;10308;42.688;23.256;2023-10-31T03:34:20;8.65;;;7.25;;
20298;SDS011;10308;42.688;23.256;2023-10-31T03:36:48;8.55;;;7.38;;
20298;SDS011;10308;42.688;23.256;2023-10-31T03:39:15;8.75;;;7.45;;
20298;SDS011;10308;42.688;23.256;2023-10-31T03:41:43;9.52;;;8.02;;
20298;SDS011;10308;42.688;23.256;2023-10-31T03:44:12;9.80;;;8.80;;
20298;SDS011;10308;42.688;23.256;2023-10-31T03:46:41;10.65;;;8.20;;
20298;SDS011;10308;42.688;23.256;2023-10-31T03:49:13;9.82;;;8.32;;
20298;SDS011;10308;42.688;23.256;2023-10-31T03:51:42;11.55;;;8.57;;
20298;SDS011;10308;42.688;23.256;2023-10-31T03:54:08;9.13;;;8.15;;
20298;SDS011;10308;42.688;23.256;2023-10-31T03:56:39;10.13;;;7.57;;
20298;SDS011;10308;42.688;23.256;2023-10-31T03:59:07;9.52;;;7.72;;
20298;SDS011;10308;42.688;23.256;2023-10-31T04:01:35;9.77;;;7.60;;
20298;SDS011;10308;42.688;23.256;2023-10-31T04:04:03;8.82;;;7.53;;
20298;SDS011;10308;42.688;23.256;2023-10-31T04:06:34;8.48;;;6.93;;
20298;SDS011;10308;42.688;23.256;2023-10-31T04:09:05;7.82;;;7.03;;
20298;SDS011;10308;42.688;23.256;2023-10-31T04:11:38;7.70;;;6.80;;
20298;SDS011;10308;42.688;23.256;2023-10-31T04:14:08;9.15;;;7.45;;
20298;SDS011;10308;42.688;23.256;2023-10-31T04:16:38;9.40;;;7.75;;
20298;SDS011;10308;42.688;23.256;2023-10-31T04:19:10;8.77;;;7.45;;
20298;SDS011;10308;42.688;23.256;2023-10-31T04:21:42;9.20;;;7.68;;
20298;SDS011;10308;42.688;23.256;2023-10-31T04:24:09;10.52;;;8.50;;
20298;SDS011;10308;42.688;23.256;2023-10-31T04:26:40;12.85;;;8.15;;
20298;SDS011;10308;42.688;23.256;2023-10-31T04:29:08;9.10;;;8.18;;
20298;SDS011;10308;42.688;23.256;2023-10-31T04:31:36;10.63;;;8.10;;
20298;SDS011;10308;42.688;23.256;2023-10-31T04:34:03;12.27;;;8.50;;
20298;SDS011;10308;42.688;23.256;2023-10-31T04:36:30;10.50;;;7.82;;
20298;SDS011;10308;42.688;23.256;2023-10-31T04:38:58;11.35;;;9.40;;
20298;SDS011;10308;42.688;23.256;2023-10-31T04:41:25;10.15;;;9.13;;
20298;SDS011;10308;42.688;23.256;2023-10-31T04:43:52;11.38;;;9.27;;
20298;SDS011;10308;42.688;23.256;2023-10-31T04:46:19;11.77;;;9.15;;
20298;SDS011;10308;42.688;23.256;2023-10-31T04:48:46;10.57;;;9.27;;
20298;SDS011;10308;42.688;23.256;2023-10-31T04:51:12;11.90;;;8.90;;
20298;SDS011;10308;42.688;23.256;2023-10-31T04:53:39;14.70;;;10.02;;
20298;SDS011;10308;42.688;23.256;2023-10-31T04:56:13;12.55;;;8.00;;
20298;SDS011;10308;42.688;23.256;2023-10-31T04:58:40;13.07;;;8.48;;
20298;SDS011;10308;42.688;23.256;2023-10-31T05:01:08;11.38;;;7.25;;
20298;SDS011;10308;42.688;23.256;2023-10-31T05:03:36;9.90;;;7.00;;
20298;SDS011;10308;42.688;23.256;2023-10-31T05:06:03;15.00;;;8.60;;
20298;SDS011;10308;42.688;23.256;2023-10-31T05:08:30;9.05;;;8.07;;
20298;SDS011;10308;42.688;23.256;2023-10-31T05:10:57;11.30;;;7.78;;
20298;SDS011;10308;42.688;23.256;2023-10-31T05:13:25;8.77;;;7.28;;
20298;SDS011;10308;42.688;23.256;2023-10-31T05:15:52;9.80;;;7.78;;
20298;SDS011;10308;42.688;23.256;2023-10-31T05:18:19;10.10;;;7.35;;
20298;SDS011;10308;42.688;23.256;2023-10-31T05:20:46;9.10;;;7.90;;
20298;SDS011;10308;42.688;23.256;2023-10-31T05:23:13;11.85;;;8.50;;
20298;SDS011;10308;42.688;23.256;2023-10-31T05:25:40;10.68;;;7.45;;
20298;SDS011;10308;42.688;23.256;2023-10-31T05:28:06;10.23;;;8.07;;
20298;SDS011;10308;42.688;23.256;2023-10-31T05:30:35;9.75;;;8.45;;
20298;SDS011;10308;42.688;23.256;2023-10-31T05:33:02;11.77;;;8.75;;
20298;SDS011;10308;42.688;23.256;2023-10-31T05:35:29;35.30;;;33.00;;
20298;SDS011;10308;42.688;23.256;2023-10-31T05:37:56;12.45;;;9.98;;
20298;SDS011;10308;42.688;23.256;2023-10-31T05:40:25;11.23;;;9.00;;
20298;SDS011;10308;42.688;23.256;2023-10-31T05:42:54;14.50;;;10.05;;
20298;SDS011;10308;42.688;23.256;2023-10-31T05:45:22;17.75;;;10.00;;
20298;SDS011;10308;42.688;23.256;2023-10-31T05:47:50;13.15;;;9.50;;
20298;SDS011;10308;42.688;23.256;2023-10-31T05:50:17;13.23;;;9.25;;
20298;SDS011;10308;42.688;23.256;2023-10-31T05:52:44;14.23;;;9.18;;
20298;SDS011;10308;42.688;23.256;2023-10-31T05:55:14;14.10;;;8.95;;
20298;SDS011;10308;42.688;23.256;2023-10-31T05:57:41;11.27;;;8.75;;
20298;SDS011;10308;42.688;23.256;2023-10-31T06:00:08;9.65;;;8.65;;
20298;SDS011;10308;42.688;23.256;2023-10-31T06:02:35;12.90;;;7.68;;
20298;SDS011;10308;42.688;23.256;2023-10-31T06:05:03;11.50;;;7.25;;
20298;SDS011;10308;42.688;23.256;2023-10-31T06:07:32;7.97;;;6.78;;
20298;SDS011;10308;42.688;23.256;2023-10-31T06:09:59;9.15;;;7.28;;
20298;SDS011;10308;42.688;23.256;2023-10-31T06:12:25;9.85;;;7.13;;
20298;SDS011;10308;42.688;23.256;2023-10-31T06:14:53;8.93;;;6.90;;
20298;SDS011;10308;42.688;23.256;2023-10-31T06:17:19;9.40;;;6.93;;
20298;SDS011;10308;42.688;23.256;2023-10-31T06:19:46;9.00;;;7.07;;
20298;SDS011;10308;42.688;23.256;2023-10-31T06:22:14;8.98;;;7.72;;
20298;SDS011;10308;42.688;23.256;2023-10-31T06:24:41;9.27;;;7.88;;
20298;SDS011;10308;42.688;23.256;2023-10-31T06:27:08;9.57;;;7.60;;
20298;SDS011;10308;42.688;23.256;2023-10-31T06:29:35;10.07;;;7.60;;
20298;SDS011;10308;42.688;23.256;2023-10-31T06:32:01;11.27;;;7.68;;
20298;SDS011;10308;42.688;23.256;2023-10-31T06:34:28;8.50;;;7.20;;
20298;SDS011;10308;42.688;23.256;2023-10-31T06:36:57;11.02;;;7.90;;
20298;SDS011;10308;42.688;23.256;2023-10-31T06:39:25;10.40;;;7.45;;
20298;SDS011;10308;42.688;23.256;2023-10-31T06:41:54;9.82;;;8.18;;
20298;SDS011;10308;42.688;23.256;2023-10-31T06:44:21;11.05;;;7.90;;
20298;SDS011;10308;42.688;23.256;2023-10-31T06:46:47;9.30;;;7.78;;
20298;SDS011;10308;42.688;23.256;2023-10-31T06:49:14;10.48;;;8.43;;
20298;SDS011;10308;42.688;23.256;2023-10-31T06:51:41;10.48;;;8.25;;
20298;SDS011;10308;42.688;23.256;2023-10-31T06:54:08;13.55;;;8.43;;
20298;SDS011;10308;42.688;23.256;2023-10-31T06:56:36;8.73;;;7.93;;
20298;SDS011;10308;42.688;23.256;2023-10-31T06:59:03;10.65;;;8.27;;
20298;SDS011;10308;42.688;23.256;2023-10-31T07:01:30;10.75;;;8.02;;
20298;SDS011;10308;42.688;23.256;2023-10-31T07:03:57;12.13;;;8.70;;
20298;SDS011;10308;42.688;23.256;2023-10-31T07:06:23;10.27;;;8.43;;
20298;SDS011;10308;42.688;23.256;2023-10-31T07:08:49;11.88;;;8.20;;
20298;SDS011;10308;42.688;23.256;2023-10-31T07:11:16;8.70;;;7.68;;
20298;SDS011;10308;42.688;23.256;2023-10-31T07:13:44;10.75;;;7.57;;
20298;SDS011;10308;42.688;23.256;2023-10-31T07:16:12;9.20;;;7.75;;
20298;SDS011;10308;42.688;23.256;2023-10-31T07:18:38;9.25;;;7.40;;
20298;SDS011;10308;42.688;23.256;2023-10-31T07:21:05;9.60;;;7.57;;
20298;SDS011;10308;42.688;23.256;2023-10-31T07:23:33;9.38;;;7.40;;
20298;SDS011;10308;42.688;23.256;2023-10-31T07:25:59;12.45;;;8.80;;
20298;SDS011;10308;42.688;23.256;2023-10-31T07:28:26;9.13;;;7.90;;
20298;SDS011;10308;42.688;23.256;2023-10-31T07:30:54;9.35;;;7.70;;
20298;SDS011;10308;42.688;23.256;2023-10-31T07:33:21;9.20;;;7.75;;
20298;SDS011;10308;42.688;23.256;2023-10-31T07:35:48;9.70;;;8.45;;
20298;SDS011;10308;42.688;23.256;2023-10-31T07:38:15;13.98;;;9.07;;
20298;SDS011;10308;42.688;23.256;2023-10-31T07:40:42;11.13;;;9.60;;
20298;SDS011;10308;42.688;23.256;2023-10-31T07:43:08;9.73;;;8.73;;
20298;SDS011;10308;42.688;23.256;2023-10-31T07:45:35;10.13;;;8.63;;
20298;SDS011;10308;42.688;23.256;2023-10-31T07:48:04;12.00;;;7.43;;
20298;SDS011;10308;42.688;23.256;2023-10-31T07:50:31;10.10;;;8.20;;
20298;SDS011;10308;42.688;23.256;2023-10-31T07:52:58;10.98;;;8.40;;
20298;SDS011;10308;42.688;23.256;2023-10-31T07:55:24;13.48;;;8.70;;
20298;SDS011;10308;42.688;23.256;2023-10-31T07:57:51;10.30;;;8.80;;
20298;SDS011;10308;42.688;23.256;2023-10-31T08:00:18;10.38;;;8.30;;
20298;SDS011;10308;42.688;23.256;2023-10-31T08:02:46;9.52;;;7.93;;
20298;SDS011;10308;42.688;23.256;2023-10-31T08:05:15;11.20;;;8.55;;
20298;SDS011;10308;42.688;23.256;2023-10-31T08:07:42;10.95;;;8.35;;
20298;SDS011;10308;42.688;23.256;2023-10-31T08:10:10;13.20;;;8.75;;
20298;SDS011;10308;42.688;23.256;2023-10-31T08:12:37;10.05;;;9.02;;
20298;SDS011;10308;42.688;23.256;2023-10-31T08:15:04;10.43;;;8.80;;
20298;SDS011;10308;42.688;23.256;2023-10-31T08:17:31;13.40;;;9.88;;
20298;SDS011;10308;42.688;23.256;2023-10-31T08:19:59;13.18;;;9.98;;
20298;SDS011;10308;42.688;23.256;2023-10-31T08:22:29;12.55;;;8.82;;
20298;SDS011;10308;42.688;23.256;2023-10-31T08:24:56;10.60;;;9.35;;
20298;SDS011;10308;42.688;23.256;2023-10-31T08:27:24;13.13;;;9.32;;
20298;SDS011;10308;42.688;23.256;2023-10-31T08:29:51;11.85;;;10.02;;
20298;SDS011;10308;42.688;23.256;2023-10-31T08:32:18;9.52;;;8.30;;
20298;SDS011;10308;42.688;23.256;2023-10-31T08:34:47;14.48;;;9.57;;
20298;SDS011;10308;42.688;23.256;2023-10-31T08:37:14;13.38;;;9.02;;
20298;SDS011;10308;42.688;23.256;2023-10-31T08:39:44;12.20;;;8.43;;
20298;SDS011;10308;42.688;23.256;2023-10-31T08:42:11;14.88;;;9.40;;
20298;SDS011;10308;42.688;23.256;2023-10-31T08:44:39;11.57;;;9.35;;
20298;SDS011;10308;42.688;23.256;2023-10-31T08:47:07;13.48;;;9.05;;
20298;SDS011;10308;42.688;23.256;2023-10-31T08:49:33;13.90;;;9.00;;
20298;SDS011;10308;42.688;23.256;2023-10-31T08:52:03;12.02;;;8.82;;
20298;SDS011;10308;42.688;23.256;2023-10-31T08:54:30;12.45;;;9.05;;
20298;SDS011;10308;42.688;23.256;2023-10-31T08:56:58;9.52;;;8.15;;
20298;SDS011;10308;42.688;23.256;2023-10-31T08:59:25;11.02;;;7.72;;
20298;SDS011;10308;42.688;23.256;2023-10-31T09:01:52;9.70;;;8.02;;
20298;SDS011;10308;42.688;23.256;2023-10-31T09:04:19;8.40;;;5.95;;
20298;SDS011;10308;42.688;23.256;2023-10-31T09:06:45;7.90;;;6.82;;
20298;SDS011;10308;42.688;23.256;2023-10-31T09:09:12;9.27;;;6.00;;
20298;SDS011;10308;42.688;23.256;2023-10-31T09:11:41;7.90;;;6.07;;
20298;SDS011;10308;42.688;23.256;2023-10-31T09:14:09;10.15;;;5.75;;
20298;SDS011;10308;42.688;23.256;2023-10-31T09:16:36;8.35;;;6.22;;
20298;SDS011;10308;42.688;23.256;2023-10-31T09:19:03;7.85;;;6.07;;
20298;SDS011;10308;42.688;23.256;2023-10-31T09:21:30;7.43;;;6.22;;
20298;SDS011;10308;42.688;23.256;2023-10-31T09:24:02;6.80;;;6.10;;
20298;SDS011;10308;42.688;23.256;2023-10-31T09:26:28;6.45;;;5.53;;
20298;SDS011;10308;42.688;23.256;2023-10-31T09:28:58;9.50;;;7.13;;
20298;SDS011;10308;42.688;23.256;2023-10-31T09:31:27;10.98;;;6.60;;
20298;SDS011;10308;42.688;23.256;2023-10-31T09:33:53;8.52;;;6.03;;
20298;SDS011;10308;42.688;23.256;2023-10-31T09:36:20;7.80;;;6.95;;
20298;SDS011;10308;42.688;23.256;2023-10-31T09:38:50;7.20;;;5.93;;
20298;SDS011;10308;42.688;23.256;2023-10-31T09:41:18;5.72;;;4.85;;
20298;SDS011;10308;42.688;23.256;2023-10-31T09:43:45;7.90;;;5.53;;
20298;SDS011;10308;42.688;23.256;2023-10-31T09:46:12;8.02;;;5.85;;
20298;SDS011;10308;42.688;23.256;2023-10-31T09:48:40;7.88;;;5.80;;
20298;SDS011;10308;42.688;23.256;2023-10-31T09:51:07;10.05;;;6.45;;
20298;SDS011;10308;42.688;23.256;2023-10-31T09:53:34;6.93;;;5.70;;
20298;SDS011;10308;42.688;23.256;2023-10-31T09:56:04;8.38;;;6.38;;
20298;SDS011;10308;42.688;23.256;2023-10-31T09:58:33;8.27;;;7.07;;
20298;SDS011;10308;42.688;23.256;2023-10-31T10:01:00;12.95;;;7.10;;
20298;SDS011;10308;42.688;23.256;2023-10-31T10:03:27;9.93;;;7.05;;
20298;SDS011;10308;42.688;23.256;2023-10-31T10:05:56;10.55;;;6.88;;
20298;SDS011;10308;42.688;23.256;2023-10-31T10:08:23;8.50;;;6.57;;
20298;SDS011;10308;42.688;23.256;2023-10-31T10:10:50;9.43;;;6.20;;
20298;SDS011;10308;42.688;23.256;2023-10-31T10:13:17;7.03;;;4.93;;
20298;SDS011;10308;42.688;23.256;2023-10-31T10:15:47;7.60;;;5.53;;
20298;SDS011;10308;42.688;23.256;2023-10-31T10:18:24;7.38;;;5.78;;
20298;SDS011;10308;42.688;23.256;2023-10-31T10:20:54;7.78;;;5.22;;
20298;SDS011;10308;42.688;23.256;2023-10-31T10:23:23;8.52;;;5.10;;
20298;SDS011;10308;42.688;23.256;2023-10-31T10:25:51;7.47;;;5.00;;
20298;SDS011;10308;42.688;23.256;2023-10-31T10:28:18;8.50;;;5.30;;
20298;SDS011;10308;42.688;23.256;2023-10-31T10:30:45;8.93;;;6.10;;
20298;SDS011;10308;42.688;23.256;2023-10-31T10:33:12;9.05;;;5.00;;
20298;SDS011;10308;42.688;23.256;2023-10-31T10:35:42;9.60;;;5.47;;
20298;SDS011;10308;42.688;23.256;2023-10-31T10:38:11;8.32;;;5.18;;
20298;SDS011;10308;42.688;23.256;2023-10-31T10:40:39;7.80;;;5.03;;
20298;SDS011;10308;42.688;23.256;2023-10-31T10:43:09;10.07;;;5.80;;
20298;SDS011;10308;42.688;23.256;2023-10-31T10:45:41;8.30;;;6.43;;
20298;SDS011;10308;42.688;23.256;2023-10-31T10:48:11;9.82;;;7.55;;
20298;SDS011;10308;42.688;23.256;2023-10-31T10:50:41;9.27;;;5.95;;
20298;SDS011;10308;42.688;23.256;2023-10-31T10:53:13;8.48;;;6.35;;
20298;SDS011;10308;42.688;23.256;2023-10-31T10:55:44;9.02;;;5.95;;
20298;SDS011;10308;42.688;23.256;2023-10-31T10:58:13;11.70;;;9.75;;
20298;SDS011;10308;42.688;23.256;2023-10-31T11:00:44;8.10;;;5.93;;
20298;SDS011;10308;42.688;23.256;2023-10-31T11:03:11;6.75;;;5.00;;
20298;SDS011;10308;42.688;23.256;2023-10-31T11:05:39;5.50;;;4.80;;
20298;SDS011;10308;42.688;23.256;2023-10-31T11:08:06;6.65;;;5.03;;
20298;SDS011;10308;42.688;23.256;2023-10-31T11:10:35;7.22;;;5.22;;
20298;SDS011;10308;42.688;23.256;2023-10-31T11:13:02;10.38;;;5.43;;
20298;SDS011;10308;42.688;23.256;2023-10-31T11:15:28;7.45;;;5.18;;
20298;SDS011;10308;42.688;23.256;2023-10-31T11:17:55;9.27;;;5.35;;
20298;SDS011;10308;42.688;23.256;2023-10-31T11:20:23;9.27;;;4.45;;
20298;SDS011;10308;42.688;23.256;2023-10-31T11:22:54;7.40;;;4.95;;
20298;SDS011;10308;42.688;23.256;2023-10-31T11:25:22;5.60;;;4.22;;
20298;SDS011;10308;42.688;23.256;2023-10-31T11:27:51;5.85;;;4.10;;
20298;SDS011;10308;42.688;23.256;2023-10-31T11:30:22;6.80;;;4.50;;
20298;SDS011;10308;42.688;23.256;2023-10-31T11:32:53;6.07;;;4.05;;
20298;SDS011;10308;42.688;23.256;2023-10-31T11:35:21;6.82;;;4.18;;
20298;SDS011;10308;42.688;23.256;2023-10-31T11:37:48;5.40;;;3.75;;
20298;SDS011;10308;42.688;23.256;2023-10-31T11:40:16;4.07;;;3.50;;
20298;SDS011;10308;42.688;23.256;2023-10-31T11:42:46;5.60;;;3.10;;
20298;SDS011;10308;42.688;23.256;2023-10-31T11:45:30;6.22;;;3.25;;
20298;SDS011;10308;42.688;23.256;2023-10-31T11:47:59;3.90;;;2.85;;
20298;SDS011;10308;42.688;23.256;2023-10-31T11:50:26;4.88;;;2.83;;
20298;SDS011;10308;42.688;23.256;2023-10-31T11:53:03;3.92;;;2.78;;
20298;SDS011;10308;42.688;23.256;2023-10-31T11:55:32;3.33;;;2.60;;
20298;SDS011;10308;42.688;23.256;2023-10-31T12:00:47;5.03;;;3.33;;
20298;SDS011;10308;42.688;23.256;2023-10-31T12:03:15;4.50;;;2.67;;
20298;SDS011;10308;42.688;23.256;2023-10-31T12:05:50;2.67;;;2.47;;
20298;SDS011;10308;42.688;23.256;2023-10-31T12:08:23;3.65;;;2.58;;
20298;SDS011;10308;42.688;23.256;2023-10-31T12:10:51;4.55;;;2.90;;
20298;SDS011;10308;42.688;23.256;2023-10-31T12:13:18;6.10;;;3.10;;
20298;SDS011;10308;42.688;23.256;2023-10-31T12:15:52;4.93;;;3.42;;
20298;SDS011;10308;42.688;23.256;2023-10-31T12:18:19;6.55;;;3.00;;
20298;SDS011;10308;42.688;23.256;2023-10-31T12:20:53;4.38;;;2.70;;
20298;SDS011;10308;42.688;23.256;2023-10-31T12:23:27;3.22;;;2.75;;
20298;SDS011;10308;42.688;23.256;2023-10-31T12:25:54;3.15;;;2.28;;
20298;SDS011;10308;42.688;23.256;2023-10-31T12:28:24;4.57;;;3.10;;
20298;SDS011;10308;42.688;23.256;2023-10-31T12:30:54;4.20;;;3.17;;
20298;SDS011;10308;42.688;23.256;2023-10-31T12:33:27;5.90;;;3.13;;
20298;SDS011;10308;42.688;23.256;2023-10-31T12:35:56;6.25;;;2.95;;
20298;SDS011;10308;42.688;23.256;2023-10-31T12:38:24;7.25;;;3.60;;
20298;SDS011;10308;42.688;23.256;2023-10-31T12:40:51;6.45;;;3.50;;
20298;SDS011;10308;42.688;23.256;2023-10-31T12:43:19;3.88;;;3.10;;
20298;SDS011;10308;42.688;23.256;2023-10-31T12:45:46;5.90;;;3.00;;
20298;SDS011;10308;42.688;23.256;2023-10-31T12:48:15;7.10;;;3.67;;
20298;SDS011;10308;42.688;23.256;2023-10-31T12:50:42;6.07;;;3.25;;
20298;SDS011;10308;42.688;23.256;2023-10-31T12:53:11;7.95;;;3.63;;
20298;SDS011;10308;42.688;23.256;2023-10-31T12:55:49;8.77;;;3.30;;
20298;SDS011;10308;42.688;23.256;2023-10-31T12:58:19;5.13;;;3.15;;
20298;SDS011;10308;42.688;23.256;2023-10-31T13:00:47;5.15;;;3.20;;
20298;SDS011;10308;42.688;23.256;2023-10-31T13:03:15;5.45;;;3.45;;
20298;SDS011;10308;42.688;23.256;2023-10-31T13:05:42;5.78;;;3.30;;
20298;SDS011;10308;42.688;23.256;2023-10-31T13:08:13;7.20;;;3.47;;
20298;SDS011;10308;42.688;23.256;2023-10-31T13:10:41;4.00;;;3.50;;
20298;SDS011;10308;42.688;23.256;2023-10-31T13:13:08;5.55;;;3.20;;
20298;SDS011;10308;42.688;23.256;2023-10-31T13:15:37;5.53;;;3.05;;
20298;SDS011;10308;42.688;23.256;2023-10-31T13:18:04;4.88;;;3.42;;
20298;SDS011;10308;42.688;23.256;2023-10-31T13:20:32;8.60;;;3.55;;
20298;SDS011;10308;42.688;23.256;2023-10-31T13:22:59;5.32;;;3.47;;
20298;SDS011;10308;42.688;23.256;2023-10-31T13:25:28;5.85;;;3.45;;
20298;SDS011;10308;42.688;23.256;2023-10-31T13:27:56;5.18;;;3.40;;
20298;SDS011;10308;42.688;23.256;2023-10-31T13:30:23;5.68;;;4.10;;
20298;SDS011;10308;42.688;23.256;2023-10-31T13:32:50;5.70;;;4.95;;
20298;SDS011;10308;42.688;23.256;2023-10-31T13:35:17;5.32;;;3.97;;
20298;SDS011;10308;42.688;23.256;2023-10-31T13:37:46;6.88;;;4.10;;
20298;SDS011;10308;42.688;23.256;2023-10-31T13:40:14;6.20;;;4.40;;
20298;SDS011;10308;42.688;23.256;2023-10-31T13:42:41;7.13;;;4.22;;
20298;SDS011;10308;42.688;23.256;2023-10-31T13:45:08;9.48;;;7.18;;
20298;SDS011;10308;42.688;23.256;2023-10-31T13:47:35;6.35;;;5.00;;
20298;SDS011;10308;42.688;23.256;2023-10-31T13:50:03;8.55;;;4.57;;
20298;SDS011;10308;42.688;23.256;2023-10-31T13:52:33;5.82;;;4.13;;
20298;SDS011;10308;42.688;23.256;2023-10-31T13:55:02;7.03;;;4.30;;
20298;SDS011;10308;42.688;23.256;2023-10-31T13:57:29;5.10;;;3.50;;
20298;SDS011;10308;42.688;23.256;2023-10-31T13:59:56;7.32;;;4.30;;
20298;SDS011;10308;42.688;23.256;2023-10-31T14:02:25;7.72;;;4.03;;
20298;SDS011;10308;42.688;23.256;2023-10-31T14:04:53;6.40;;;3.80;;
20298;SDS011;10308;42.688;23.256;2023-10-31T14:07:21;4.10;;;3.42;;
20298;SDS011;10308;42.688;23.256;2023-10-31T14:09:49;7.30;;;4.72;;
20298;SDS011;10308;42.688;23.256;2023-10-31T14:12:17;4.63;;;3.97;;
20298;SDS011;10308;42.688;23.256;2023-10-31T14:14:44;6.85;;;4.10;;
20298;SDS011;10308;42.688;23.256;2023-10-31T14:17:13;8.07;;;4.43;;
20298;SDS011;10308;42.688;23.256;2023-10-31T14:19:40;5.25;;;4.07;;
20298;SDS011;10308;42.688;23.256;2023-10-31T14:22:07;8.73;;;4.35;;
20298;SDS011;10308;42.688;23.256;2023-10-31T14:24:34;6.38;;;3.95;;
20298;SDS011;10308;42.688;23.256;2023-10-31T14:27:01;8.07;;;4.38;;
20298;SDS011;10308;42.688;23.256;2023-10-31T14:29:29;8.57;;;4.68;;
20298;SDS011;10308;42.688;23.256;2023-10-31T14:31:56;6.70;;;3.92;;
20298;SDS011;10308;42.688;23.256;2023-10-31T14:34:23;7.38;;;4.65;;
20298;SDS011;10308;42.688;23.256;2023-10-31T14:36:50;7.30;;;4.45;;